createdAt,value
2023-04-29T00:03:41.642Z,13.06
2023-04-29T00:08:43.467Z,13.04
2023-04-29T00:13:45.130Z,12.94
2023-04-29T00:18:46.864Z,12.80
2023-04-29T00:23:48.547Z,12.79
2023-04-29T00:28:50.336Z,12.80
2023-04-29T00:33:52.065Z,12.60
2023-04-29T00:38:53.879Z,12.58
2023-04-29T00:43:55.890Z,12.57
2023-04-29T00:49:01.380Z,12.51
2023-04-29T00:54:08.819Z,12.44
2023-04-29T00:59:12.596Z,12.44
2023-04-29T01:04:15.453Z,12.30
2023-04-29T01:09:35.706Z,11.99
2023-04-29T01:14:39.649Z,11.93
2023-04-29T01:19:51.572Z,11.95
2023-04-29T01:24:56.106Z,11.94
2023-04-29T01:30:16.716Z,12.02
2023-04-29T01:36:09.293Z,12.08
2023-04-29T01:41:15.141Z,11.94
2023-04-29T01:46:19.790Z,11.91
2023-04-29T01:51:22.416Z,11.90
2023-04-29T01:56:24.758Z,11.92
2023-04-29T02:01:41.095Z,12.01
2023-04-29T02:06:43.178Z,11.94
2023-04-29T02:11:47.527Z,12.01
2023-04-29T02:16:49.449Z,12.07
2023-04-29T02:21:51.688Z,12.18
2023-04-29T02:26:53.593Z,12.22
2023-04-29T02:31:55.739Z,12.30
2023-04-29T02:36:57.794Z,12.34
2023-04-29T02:41:59.820Z,12.40
2023-04-29T02:47:01.926Z,12.45
2023-04-29T02:52:04.838Z,12.41
2023-04-29T02:57:08.147Z,12.44
2023-04-29T03:02:09.861Z,12.51
2023-04-29T03:07:11.934Z,12.58
2023-04-29T03:12:14.042Z,12.61
2023-04-29T03:17:15.892Z,12.59
2023-04-29T03:22:19.716Z,12.60
2023-04-29T03:27:23.362Z,12.61
2023-04-29T03:32:25.257Z,12.63
2023-04-29T03:37:27.612Z,12.66
2023-04-29T03:42:37.845Z,12.69
2023-04-29T03:47:40.404Z,12.72
2023-04-29T03:52:42.180Z,12.78
2023-04-29T03:57:50.590Z,12.83
2023-04-29T04:02:53.733Z,12.82
2023-04-29T04:07:55.927Z,12.81
2023-04-29T04:13:16.258Z,12.82
2023-04-29T04:18:18.904Z,12.79
2023-04-29T04:23:20.678Z,12.78
2023-04-29T04:28:22.394Z,12.79
2023-04-29T04:33:34.474Z,12.83
2023-04-29T04:38:36.744Z,12.87
2023-04-29T04:43:42.832Z,12.90
2023-04-29T04:48:52.466Z,12.94
2023-04-29T04:53:55.194Z,12.96
2023-04-29T04:58:59.066Z,13.00
2023-04-29T05:04:02.604Z,13.06
2023-04-29T05:09:06.372Z,13.13
2023-04-29T05:14:09.522Z,13.17
2023-04-29T05:19:11.362Z,13.22
2023-04-29T05:24:15.550Z,13.27
2023-04-29T05:29:17.638Z,13.25
2023-04-29T05:34:25.876Z,13.27
2023-04-29T05:39:28.120Z,13.32
2023-04-29T05:44:40.525Z,13.36
2023-04-29T05:49:42.100Z,13.39
2023-04-29T05:54:44.204Z,13.43
2023-04-29T05:59:46.110Z,13.48
2023-04-29T06:04:48.672Z,13.58
2023-04-29T06:10:05.743Z,13.66
2023-04-29T06:15:08.044Z,13.65
2023-04-29T06:20:10.703Z,13.69
2023-04-29T06:25:14.287Z,13.75
2023-04-29T06:30:23.712Z,13.87
2023-04-29T06:35:25.919Z,13.94
2023-04-29T06:40:40.953Z,13.97
2023-04-29T06:46:05.625Z,13.98
2023-04-29T06:51:13.634Z,14.10
2023-04-29T06:56:16.950Z,14.08
2023-04-29T07:01:19.077Z,14.07
2023-04-29T07:06:20.872Z,14.09
2023-04-29T07:11:24.745Z,14.14
2023-04-29T07:16:28.179Z,14.25
2023-04-29T07:21:30.717Z,14.39
2023-04-29T07:26:32.563Z,14.48
2023-04-29T07:31:36.022Z,14.48
2023-04-29T07:36:39.884Z,14.45
2023-04-29T07:41:42.116Z,14.54
2023-04-29T07:46:44.758Z,14.69
2023-04-29T07:51:46.730Z,14.85
2023-04-29T07:56:48.600Z,14.89
2023-04-29T08:01:50.838Z,14.91
2023-04-29T08:06:52.726Z,15.04
2023-04-29T08:11:54.366Z,15.35
2023-04-29T08:16:56.382Z,15.53
2023-04-29T08:21:58.311Z,15.65
2023-04-29T08:26:59.991Z,15.65
2023-04-29T08:32:01.822Z,15.89
2023-04-29T08:37:03.660Z,15.97
2023-04-29T08:42:09.583Z,16.11
2023-04-29T08:47:11.796Z,16.26
2023-04-29T08:52:14.628Z,16.42
2023-04-29T08:57:16.662Z,16.62
2023-04-29T09:02:21.470Z,16.66
2023-04-29T09:07:24.214Z,16.86
2023-04-29T09:12:26.820Z,17.05
2023-04-29T09:17:54.785Z,17.21
2023-04-29T09:23:03.607Z,17.46
2023-04-29T09:28:16.878Z,17.50
2023-04-29T09:33:18.585Z,17.45
2023-04-29T09:38:21.047Z,17.61
2023-04-29T09:43:23.833Z,17.74
2023-04-29T09:48:33.673Z,17.74
2023-04-29T09:53:38.213Z,17.95
2023-04-29T09:58:40.740Z,18.24
2023-04-29T10:03:43.725Z,18.50
2023-04-29T10:08:46.606Z,18.61
2023-04-29T10:13:50.268Z,18.52
2023-04-29T10:18:55.750Z,18.15
2023-04-29T10:23:59.088Z,17.67
2023-04-29T10:29:01.917Z,17.57
2023-04-29T10:34:03.524Z,17.35
2023-04-29T10:39:12.689Z,17.02
2023-04-29T10:44:14.484Z,16.67
2023-04-29T10:49:16.448Z,16.66
2023-04-29T10:54:20.960Z,16.64
2023-04-29T10:59:42.605Z,16.70
2023-04-29T11:05:07.753Z,16.88
2023-04-29T11:10:09.628Z,16.90
2023-04-29T11:15:18.151Z,17.35
2023-04-29T11:20:20.145Z,17.68
2023-04-29T11:25:25.885Z,17.72
2023-04-29T11:30:28.683Z,17.53
2023-04-29T11:35:31.134Z,17.22
2023-04-29T11:40:33.233Z,17.29
2023-04-29T11:45:36.083Z,17.64
2023-04-29T11:50:37.743Z,17.34
2023-04-29T11:55:42.452Z,17.51
2023-04-29T12:00:45.136Z,17.70
2023-04-29T12:05:52.996Z,17.45
2023-04-29T12:10:56.880Z,17.14
2023-04-29T12:15:59.213Z,17.02
2023-04-29T12:21:01.272Z,17.06
2023-04-29T12:26:03.845Z,17.52
2023-04-29T12:31:05.579Z,17.44
2023-04-29T12:36:18.218Z,17.21
2023-04-29T12:41:21.156Z,17.28
2023-04-29T12:46:23.308Z,17.85
2023-04-29T12:51:25.204Z,18.26
2023-04-29T12:56:26.966Z,18.42
2023-04-29T13:01:28.692Z,18.35
2023-04-29T13:06:31.907Z,18.23
2023-04-29T13:11:34.871Z,17.80
2023-04-29T13:16:36.975Z,18.12
2023-04-29T13:21:39.081Z,18.09
2023-04-29T13:26:41.300Z,17.68
2023-04-29T13:31:44.103Z,17.48
2023-04-29T13:36:46.225Z,17.33
2023-04-29T13:41:47.967Z,17.39
2023-04-29T13:46:52.089Z,17.32
2023-04-29T13:52:38.618Z,17.34
2023-04-29T13:57:58.899Z,17.21
2023-04-29T14:02:39.099Z,17.18
2023-04-29T14:07:41.059Z,17.31
2023-04-29T14:12:43.452Z,17.26
2023-04-29T14:17:45.242Z,17.67
2023-04-29T14:22:47.436Z,18.25
2023-04-29T14:27:49.274Z,18.28
2023-04-29T14:32:52.162Z,18.39
2023-04-29T14:37:54.441Z,18.01
2023-04-29T14:42:56.330Z,17.84
2023-04-29T14:47:58.083Z,17.69
2023-04-29T14:53:01.328Z,17.45
2023-04-29T14:58:05.062Z,17.44
2023-04-29T15:03:07.147Z,17.40
2023-04-29T15:08:09.549Z,17.32
2023-04-29T15:13:11.339Z,17.13
2023-04-29T15:18:12.992Z,16.99
2023-04-29T15:23:14.730Z,17.01
2023-04-29T15:28:16.791Z,16.92
2023-04-29T15:33:19.035Z,16.72
2023-04-29T15:38:20.786Z,16.67
2023-04-29T15:43:23.427Z,16.66
2023-04-29T15:48:26.472Z,16.55
2023-04-29T15:53:28.436Z,16.56
2023-04-29T15:58:30.689Z,16.35
2023-04-29T16:03:32.426Z,16.44
2023-04-29T16:08:34.087Z,16.39
2023-04-29T16:13:36.625Z,16.30
2023-04-29T16:18:39.642Z,16.28
2023-04-29T16:23:41.310Z,16.15
2023-04-29T16:28:43.374Z,16.08
2023-04-29T16:33:45.663Z,16.15
2023-04-29T16:38:47.794Z,16.31
2023-04-29T16:43:49.921Z,16.32
2023-04-29T16:48:56.545Z,16.23
2023-04-29T16:53:58.226Z,16.22
2023-04-29T16:59:00.252Z,16.00
2023-04-29T17:04:02.102Z,15.87
2023-04-29T17:09:04.184Z,15.82
2023-04-29T17:14:06.097Z,15.73
2023-04-29T17:19:08.171Z,15.62
2023-04-29T17:24:09.877Z,15.53
2023-04-29T17:29:12.531Z,15.36
2023-04-29T17:34:25.309Z,15.29
2023-04-29T17:39:27.090Z,15.24
2023-04-29T17:44:28.990Z,15.12
2023-04-29T17:49:31.642Z,15.14
2023-04-29T17:54:33.468Z,15.07
2023-04-29T17:59:35.581Z,14.97
2023-04-29T18:04:37.675Z,15.00
2023-04-29T18:09:39.637Z,14.99
2023-04-29T18:14:42.289Z,14.95
2023-04-29T18:19:46.649Z,14.99
2023-04-29T18:24:49.340Z,15.04
2023-04-29T18:29:51.307Z,15.01
2023-04-29T18:34:53.086Z,14.95
2023-04-29T18:39:55.290Z,14.83
2023-04-29T18:44:57.129Z,14.69
2023-04-29T18:49:59.150Z,14.61
2023-04-29T18:55:01.031Z,14.66
2023-04-29T19:00:03.856Z,14.70
2023-04-29T19:05:09.153Z,14.72
2023-04-29T19:10:11.227Z,14.68
2023-04-29T19:15:13.324Z,14.69
2023-04-29T19:20:15.353Z,14.68
2023-04-29T19:25:17.381Z,14.73
2023-04-29T19:30:19.684Z,14.74
2023-04-29T19:35:21.787Z,14.64
2023-04-29T19:40:23.632Z,14.60
2023-04-29T19:45:26.729Z,14.52
2023-04-29T19:50:29.241Z,14.50
2023-04-29T19:55:31.198Z,14.33
2023-04-29T20:00:33.477Z,14.22
2023-04-29T20:05:35.192Z,14.11
2023-04-29T20:10:36.914Z,14.03
2023-04-29T20:15:38.630Z,13.71
2023-04-29T20:20:40.329Z,13.50
2023-04-29T20:25:42.488Z,13.50
2023-04-29T20:30:44.336Z,13.51
2023-04-29T20:35:46.503Z,13.29
2023-04-29T20:40:48.743Z,13.10
2023-04-29T20:45:50.698Z,13.01
2023-04-29T20:50:52.457Z,12.91
2023-04-29T20:55:54.135Z,12.84
2023-04-29T21:00:56.391Z,12.86
2023-04-29T21:05:58.218Z,12.90
2023-04-29T21:10:59.918Z,12.79
2023-04-29T21:16:02.247Z,12.71
2023-04-29T21:21:04.091Z,12.65
2023-04-29T21:26:05.862Z,12.57
2023-04-29T21:31:09.543Z,12.65
2023-04-29T21:36:11.953Z,12.71
2023-04-29T21:41:37.357Z,12.80
2023-04-29T21:46:39.431Z,12.72
2023-04-29T21:51:41.195Z,12.71
2023-04-29T21:56:43.116Z,12.70
2023-04-29T22:01:44.913Z,12.74
2023-04-29T22:06:46.801Z,12.84
2023-04-29T22:11:48.560Z,12.91
2023-04-29T22:16:50.286Z,13.01
2023-04-29T22:21:51.919Z,13.09
2023-04-29T22:26:53.762Z,13.12
2023-04-29T22:31:56.139Z,13.15
2023-04-29T22:36:58.012Z,13.17
2023-04-29T22:41:59.767Z,13.22
2023-04-29T22:47:01.717Z,13.24
2023-04-29T22:52:03.859Z,13.24
2023-04-29T22:57:05.554Z,13.23
2023-04-29T23:02:07.410Z,13.22
2023-04-29T23:07:09.358Z,13.01
2023-04-29T23:12:11.056Z,12.98
2023-04-29T23:17:12.985Z,13.01
2023-04-29T23:22:16.897Z,13.00
2023-04-29T23:27:18.603Z,13.02
2023-04-29T23:32:20.675Z,13.05
2023-04-29T23:37:22.582Z,13.06
2023-04-29T23:42:24.523Z,13.03
2023-04-29T23:47:26.291Z,13.02
2023-04-29T23:52:28.042Z,13.00
2023-04-29T23:57:29.740Z,12.98
